Terminal Aerodrome Forecast
Issued by NWS

Home | Current Version | Previous Version | Text Only | Print | Product List | Glossary On
Versions: 1 2 3 4 5 6 7 8 9 10 11 12 13 14 15 16 17 18 19 20 21 22 23
000
FTUS44 KSJT 292300
TAFJCT
TAF
KJCT 292337Z 3000/3024 17007KT P6SM SCT040
     FM300700 15005KT P6SM BKN015
     FM301100 VRB05KT P6SM VCTS BKN015CB
      TEMPO 3012/3015 5SM -TSRA BR OVC015CB
     FM301600 04006KT P6SM VCSH BKN035
     FM301900 06008KT P6SM BKN050=

USA.gov is the U.S. government's official web portal to all federal, state and local government web resources and services.